• Join FlightAware (Why Join?)
  • Login
  • US Flag 
02:10PM EDT


 

Airport Tracker/Info


-or-


 

Live Flight TrackerFlight Track Log ✈ AFL150 ✈ 02-Jan-2014 ✈ UUEE / SVO - MUHA / HAV

Flight Track Log - Related Links

Times and Time Zones

All times are in EST time to prevent confusion due to time zone crossing. See the AFL150 flight status page for this flight to view local times or setup timezone preferences in your user account.

Time Position Orientation Groundspeed Altitude Reporting Facility
EST Latitude Longitude Course Direction KTS MPH feet Rate Location/Type
04:39AM 56.1032 37.2127 316° Northwest  Level FlightAware Approximate
04:40AM 56.1861 37.0682 316° Northwest  Level FlightAware Approximate
04:41AM 56.2689 36.9232 316° Northwest  Level FlightAware Approximate
04:42AM 56.3515 36.7775 316° Northwest  Level FlightAware Approximate
04:43AM 56.4338 36.6312 316° Northwest  Level FlightAware Approximate
04:44AM 56.5161 36.4842 315° West  Level FlightAware Approximate
04:45AM 56.5981 36.3366 315° West  Level FlightAware Approximate
04:46AM 56.6800 36.1884 315° West  Level FlightAware Approximate
04:47AM 56.7617 36.0395 315° West  Level FlightAware Approximate
04:48AM 56.8432 35.8900 315° West  Level FlightAware Approximate
04:49AM 56.9245 35.7398 315° West  Level FlightAware Approximate
04:50AM 57.0057 35.5890 315° West  Level FlightAware Approximate
04:51AM 57.0867 35.4375 315° West  Level FlightAware Approximate
04:52AM 57.1674 35.2854 314° West  Level FlightAware Approximate
04:53AM 57.2481 35.1325 314° West  Level FlightAware Approximate
04:54AM 57.3285 34.9790 314° West  Level FlightAware Approximate
04:55AM 57.4087 34.8249 314° West  Level FlightAware Approximate
04:56AM 57.4742 34.6481 312° West  Level Estimated
04:57AM 57.5519 34.4888 312° West  Level FlightAware Approximate
04:58AM 57.6293 34.3288 312° West  Level FlightAware Approximate
04:59AM 57.7065 34.1682 312° West  Level FlightAware Approximate
05:00AM 57.7836 34.0068 312° West  Level FlightAware Approximate
05:01AM 57.8604 33.8448 312° West  Level FlightAware Approximate
05:02AM 57.9370 33.6821 312° West  Level FlightAware Approximate
05:03AM 58.0134 33.5187 311° West  Level FlightAware Approximate
05:04AM 58.0896 33.3545 311° West  Level FlightAware Approximate
05:05AM 58.1656 33.1897 311° West  Level FlightAware Approximate
05:06AM 58.2413 33.0242 311° West  Level FlightAware Approximate
05:07AM 58.3169 32.8580 311° West  Level FlightAware Approximate
05:08AM 58.3923 32.6910 311° West  Level FlightAware Approximate
05:09AM 58.4674 32.5234 311° West  Level FlightAware Approximate
05:10AM 58.5423 32.3550 310° West  Level FlightAware Approximate
05:11AM 58.6170 32.1859 310° West  Level FlightAware Approximate
05:12AM 58.6914 32.0161 310° West  Level FlightAware Approximate
05:13AM 58.7656 31.8455 310° West  Level FlightAware Approximate
05:14AM 58.8396 31.6743 310° West  Level FlightAware Approximate
05:15AM 58.9134 31.5023 310° West  Level FlightAware Approximate
05:16AM 58.9870 31.3295 310° West  Level FlightAware Approximate
05:17AM 59.0603 31.1560 309° West  Level FlightAware Approximate
05:18AM 59.1334 30.9818 309° West  Level FlightAware Approximate
05:19AM 59.2062 30.8069 309° West  Level FlightAware Approximate
05:20AM 59.2789 30.6312 309° West  Level FlightAware Approximate
05:21AM 59.3512 30.4547 309° West  Level FlightAware Approximate
05:22AM 59.4234 30.2775 309° West  Level FlightAware Approximate
05:23AM 59.4953 30.0995 309° West  Level FlightAware Approximate
05:24AM 59.5669 29.9208 308° West  Level FlightAware Approximate
05:25AM 59.6383 29.7413 308° West  Level FlightAware Approximate
05:26AM 59.7095 29.5611 308° West  Level FlightAware Approximate
05:27AM 59.7804 29.3800 308° West  Level FlightAware Approximate
05:28AM 59.8511 29.1982 308° West  Level FlightAware Approximate
05:29AM 59.9215 29.0157 308° West  Level FlightAware Approximate
05:30AM 59.9917 28.8324 307° West  Level FlightAware Approximate
05:31AM 60.0616 28.6483 307° West  Level FlightAware Approximate
05:32AM 60.1312 28.4634 307° West  Level FlightAware Approximate
05:33AM 60.2006 28.2777 307° West  Level FlightAware Approximate
05:34AM 60.2697 28.0912 307° West  Level FlightAware Approximate
05:35AM 60.3386 27.9040 307° West  Level FlightAware Approximate
05:36AM 60.4072 27.7159 307° West  Level FlightAware Approximate
05:37AM 60.4756 27.5271 306° West  Level FlightAware Approximate
05:38AM 60.5436 27.3375 306° West  Level FlightAware Approximate
05:39AM 60.6114 27.1471 306° West  Level FlightAware Approximate
05:40AM 60.6790 26.9558 306° West  Level FlightAware Approximate
05:41AM 60.7462 26.7638 306° West  Level FlightAware Approximate
05:42AM 60.8132 26.5710 306° West  Level FlightAware Approximate
05:43AM 60.8799 26.3773 305° West  Level FlightAware Approximate
05:44AM 60.9463 26.1829 305° West  Level FlightAware Approximate
05:45AM 61.0124 25.9876 305° West  Level FlightAware Approximate
05:46AM 61.0783 25.7915 305° West  Level FlightAware Approximate
05:47AM 61.1439 25.5947 305° West  Level FlightAware Approximate
05:48AM 61.2091 25.3969 304° West  Level FlightAware Approximate
05:49AM 61.2742 25.1984 304° West  Level FlightAware Approximate
05:50AM 61.3388 24.9991 304° West  Level FlightAware Approximate
05:51AM 61.4033 24.7989 304° West  Level FlightAware Approximate
05:52AM 61.4674 24.5979 304° West  Level FlightAware Approximate
05:53AM 61.5312 24.3961 304° West  Level FlightAware Approximate
05:54AM 61.5947 24.1934 303° West  Level FlightAware Approximate
05:55AM 61.6579 23.9899 303° West  Level FlightAware Approximate
05:56AM 61.7209 23.7856 303° West  Level FlightAware Approximate
05:56AM 58.8099 21.6984 303° West 432 497 34,000  Level FlightAware ADS-B (ESKB)
05:56AM 58.8201 21.6184 284° West 429 494 34,000  Level FlightAware ADS-B
05:57AM 58.8389 21.4716 284° West 432 497 34,000  Level FlightAware ADS-B (ESKB)
05:57AM 58.8570 21.3286 284° West 430 495 34,000 60 Level FlightAware ADS-B
05:58AM 58.8601 21.3040 284° West 436 502 34,100 360 Climbing FlightAware ADS-B (ESKB)
05:59AM 58.9136 20.9593 287° West 443 510 34,700 720 Climbing FlightAware ADS-B (ESKB)
06:00AM 58.9398 20.8049 288° West 441 507 35,400 900 Climbing FlightAware ADS-B (ESKB)
06:00AM 58.9689 20.6279 288° West 436 502 36,000 420 Climbing FlightAware ADS-B
06:01AM 58.9888 20.5055 288° West 438 504 36,000  Level FlightAware ADS-B (ESKB)
06:02AM 59.0125 20.3587 287° West 437 503 36,000  Level FlightAware ADS-B
06:02AM 59.0356 20.2146 287° West 430 495 36,000  Level FlightAware ADS-B
06:03AM 59.0593 20.0654 287° West 430 495 36,000  Level FlightAware ADS-B
06:04AM 59.0827 19.9164 287° West 426 490 36,000  Level FlightAware ADS-B
06:04AM 59.1060 19.7674 287° West 426 490 36,000  Level FlightAware ADS-B
06:05AM 59.1173 19.6945 287° West 428 493 36,000  Level FlightAware ADS-B (ESKB)
06:05AM 59.1293 19.6168 287° West 428 493 36,000  Level FlightAware ADS-B (ESKB)
06:05AM 59.1395 19.5509 287° West 428 493 36,000  Level FlightAware ADS-B (ESKB)
06:06AM 59.1517 19.4708 287° West 428 493 36,000  Level FlightAware ADS-B (ESKB)
06:06AM 59.1630 19.3970 287° West 428 493 36,000  Level FlightAware ADS-B (ESKB)
06:06AM 59.1742 19.3232 287° West 428 493 36,000  Level FlightAware ADS-B (ESKB)
06:07AM 59.1854 19.2492 286° West 428 493 36,000  Level FlightAware ADS-B (ESKB)
06:07AM 59.1959 19.1798 286° West 428 493 36,000  Level FlightAware ADS-B (ESKB)
06:07AM 59.2066 19.1081 286° West 428 493 36,000  Level FlightAware ADS-B (ESKB)
06:08AM 59.2184 19.0291 286° West 429 494 36,000  Level FlightAware ADS-B (ESKB)
06:08AM 59.2295 18.9541 286° West 429 494 36,000  Level FlightAware ADS-B (ESKB)
06:08AM 59.2401 18.8819 286° West 429 494 36,000  Level FlightAware ADS-B (ESKB)
06:09AM 59.2621 18.7321 286° West 430 495 36,000  Level FlightAware ADS-B
06:10AM 59.2840 18.5818 286° West 430 495 36,000  Level FlightAware ADS-B (ESKB)
06:10AM 59.3047 18.4382 286° West 431 496 36,000  Level FlightAware ADS-B (ESKB)
06:11AM 59.3271 18.2822 286° West 432 497 36,000  Level FlightAware ADS-B
06:12AM 59.3481 18.1330 286° West 433 498 36,000  Level FlightAware ADS-B (ESKB)
06:12AM 59.3687 17.9861 285° West 433 498 36,000  Level FlightAware ADS-B (ESKB)
06:13AM 59.3913 17.8238 285° West 434 499 36,000  Level FlightAware ADS-B (ESKB)
06:14AM 59.4107 17.6822 285° West 435 501 36,000  Level FlightAware ADS-B (ESKB)
06:14AM 59.4275 17.5596 285° West 437 503 36,000  Level FlightAware ADS-B
06:15AM 59.4429 17.4454 285° West 438 504 36,000  Level FlightAware ADS-B (ESKB)
06:15AM 59.4582 17.3314 285° West 439 505 36,000  Level FlightAware ADS-B
06:16AM 59.4735 17.2167 285° West 439 505 36,000  Level FlightAware ADS-B (ESKB)
06:16AM 59.4896 17.0956 285° West 438 504 36,000  Level FlightAware ADS-B
06:17AM 59.5024 16.9974 285° West 440 506 36,000  Level FlightAware ADS-B (ESKB)
06:17AM 59.5247 16.8269 284° West 439 505 36,000  Level FlightAware ADS-B (ESKB)
06:18AM 59.5393 16.7126 284° West 436 502 36,000  Level FlightAware ADS-B
06:18AM 59.5541 16.5974 284° West 438 504 36,000  Level FlightAware ADS-B (ESKB)
06:19AM 59.5688 16.4812 284° West 437 503 36,000  Level FlightAware ADS-B
06:20AM 59.5886 16.3237 284° West 437 503 36,000  Level FlightAware ADS-B
06:20AM 59.6014 16.2212 284° West 439 505 36,000  Level FlightAware ADS-B (ESKB)
06:20AM 59.6045 16.1957 284° West 437 503 36,000  Level FlightAware ADS-B
06:21AM 59.6267 16.0166 284° West 436 502 36,000  Level FlightAware ADS-B
06:21AM 59.6398 15.9092 284° West 436 502 36,000  Level FlightAware ADS-B (ESKB)
06:22AM 59.6547 15.7864 284° West 436 502 36,000  Level FlightAware ADS-B
06:22AM 59.6684 15.6724 283° West 435 501 36,000  Level FlightAware ADS-B (ESKB)
06:23AM 59.6792 15.5821 283° West 434 499 36,000  Level FlightAware ADS-B (ESKB)
06:25AM 59.7384 15.2309 289° West  Level Estimated
06:26AM 59.7746 15.0131 288° West  Level Estimated
06:27AM 59.8104 14.7948 288° West  Level Estimated
06:28AM 59.8459 14.5760 288° West  Level Estimated
06:29AM 59.8810 14.3567 288° West  Level Estimated
06:30AM 59.9157 14.1370 288° West  Level Estimated
06:31AM 59.9501 13.9169 287° West  Level Estimated
06:32AM 59.9841 13.6963 287° West  Level Estimated
06:33AM 60.0177 13.4752 287° West  Level Estimated
06:34AM 60.0509 13.2537 287° West  Level Estimated
06:35AM 60.0838 13.0317 287° West  Level Estimated
06:36AM 60.1163 12.8094 286° West  Level Estimated
06:37AM 60.1485 12.5865 286° West  Level Estimated
06:38AM 60.1802 12.3632 286° West  Level Estimated
06:39AM 60.2116 12.1396 286° West  Level Estimated
06:40AM 60.2426 11.9154 286° West  Level Estimated
06:41AM 60.2733 11.6909 285° West  Level Estimated
06:42AM 60.3035 11.4659 285° West  Level Estimated
06:43AM 60.3334 11.2405 285° West  Level Estimated
06:44AM 60.3629 11.0147 285° West  Level Estimated
06:45AM 60.3920 10.7886 285° West  Level Estimated
06:46AM 60.4207 10.5620 284° West  Level Estimated
06:47AM 60.4491 10.3350 284° West  Level Estimated
06:48AM 60.4770 10.1076 284° West  Level Estimated
06:49AM 60.5046 9.8798 284° West  Level Estimated
06:50AM 60.5317 9.6516 284° West  Level Estimated
06:51AM 60.5585 9.4231 284° West  Level Estimated
06:52AM 60.5849 9.1942 283° West  Level Estimated
06:53AM 60.6109 8.9649 283° West  Level Estimated
06:54AM 60.6365 8.7352 283° West  Level Estimated
06:55AM 60.6617 8.5052 283° West  Level Estimated
06:56AM 60.6865 8.2748 283° West  Level Estimated
06:57AM 60.7110 8.0441 282° West  Level Estimated
06:58AM 60.7350 7.8130 282° West  Level Estimated
06:59AM 60.7586 7.5816 282° West  Level Estimated
07:00AM 60.7818 7.3498 282° West  Level Estimated
07:01AM 60.8047 7.1178 281° West  Level Estimated
07:02AM 60.8271 6.8853 281° West  Level Estimated
07:03AM 60.8491 6.6526 281° West  Level Estimated
07:04AM 60.8708 6.4195 281° West  Level Estimated
07:05AM 60.8920 6.1861 281° West  Level Estimated
07:06AM 60.9128 5.9525 280° West  Level Estimated
07:07AM 60.9332 5.7185 280° West  Level Estimated
07:08AM 60.9532 5.4842 280° West  Level Estimated
07:09AM 60.9728 5.2496 280° West  Level Estimated
07:10AM 60.9920 5.0148 280° West  Level Estimated
07:11AM 61.0108 4.7796 279° West  Level Estimated
07:12AM 61.0291 4.5442 279° West  Level Estimated
07:13AM 61.0471 4.3085 279° West  Level Estimated
07:14AM 61.0647 4.0725 279° West  Level Estimated
07:15AM 61.0818 3.8363 279° West  Level Estimated
07:16AM 61.0985 3.5999 278° West  Level Estimated
07:17AM 61.1148 3.3632 278° West  Level Estimated
07:18AM 61.1307 3.1262 278° West  Level Estimated
07:19AM 61.1462 2.8890 278° West  Level Estimated
07:20AM 61.1613 2.6516 278° West  Level Estimated
07:21AM 61.1759 2.4140 277° West  Level Estimated
07:22AM 61.1902 2.1761 277° West  Level Estimated
07:23AM 61.2040 1.9380 277° West  Level Estimated
07:24AM 61.2174 1.6998 277° West  Level Estimated
07:25AM 61.2304 1.4613 277° West  Level Estimated
07:26AM 61.2429 1.2226 276° West  Level Estimated
07:27AM 61.2551 0.9837 276° West  Level Estimated
07:28AM 61.2668 0.7447 276° West  Level Estimated
07:29AM 61.2781 0.5055 276° West  Level Estimated
07:30AM 61.2890 0.2661 276° West  Level Estimated
07:31AM 61.2994 0.0266 275° West  Level Estimated
07:32AM 61.3095 -0.2131 275° West  Level Estimated
07:33AM 61.3191 -0.4530 275° West  Level Estimated
07:34AM 61.3283 -0.6930 275° West  Level Estimated
07:35AM 61.3370 -0.9331 274° West  Level Estimated
07:36AM 61.3454 -1.1734 274° West  Level Estimated
07:37AM 61.3533 -1.4138 274° West  Level Estimated
07:38AM 61.3608 -1.6543 274° West  Level Estimated
07:39AM 61.3679 -1.8949 274° West  Level Estimated
07:40AM 61.3745 -2.1356 273° West  Level Estimated
07:41AM 61.3807 -2.3765 273° West  Level Estimated
07:42AM 61.3865 -2.6174 273° West  Level Estimated
07:43AM 61.3919 -2.8584 273° West  Level Estimated
07:44AM 61.3968 -3.0995 273° West  Level Estimated
07:45AM 61.4013 -3.3406 272° West  Level Estimated
07:46AM 61.4054 -3.5818 272° West  Level Estimated
07:47AM 61.4091 -3.8231 272° West  Level Estimated
07:48AM 61.4123 -4.0645 272° West  Level Estimated
07:49AM 61.4151 -4.3058 271° West  Level Estimated
07:50AM 61.4175 -4.5473 271° West  Level Estimated
07:51AM 61.4194 -4.7887 271° West  Level Estimated
07:52AM 61.4210 -5.0302 271° West  Level Estimated
07:53AM 61.4221 -5.2717 271° West  Level Estimated
07:54AM 61.4227 -5.5132 270° West  Level Estimated
07:55AM 61.4230 -5.7547 270° West  Level Estimated
07:56AM 61.4228 -5.9963 270° West  Level Estimated
07:57AM 61.4222 -6.2378 270° West  Level Estimated
07:58AM 61.4211 -6.4793 270° West  Level Estimated
07:59AM 61.4197 -6.7208 269° West  Level Estimated
08:00AM 61.4178 -6.9622 269° West  Level Estimated
08:01AM 61.4154 -7.2037 269° West  Level Estimated
08:02AM 61.4127 -7.4451 269° West  Level Estimated
08:03AM 61.4095 -7.6864 269° West  Level Estimated
08:04AM 61.4059 -7.9277 268° West  Level Estimated
08:05AM 61.4019 -8.1689 268° West  Level Estimated
08:06AM 61.3974 -8.4101 268° West  Level Estimated
08:07AM 61.3925 -8.6512 268° West  Level Estimated
08:08AM 61.3872 -8.8922 267° West  Level Estimated
08:09AM 61.3815 -9.1331 267° West  Level Estimated
08:10AM 61.3753 -9.3740 267° West  Level Estimated
08:11AM 61.3687 -9.6147 267° West  Level Estimated
08:12AM 61.3617 -9.8553 267° West  Level Estimated
08:13AM 61.3543 -10.0958 266° West  Level Estimated
08:14AM 61.3464 -10.3363 266° West  Level Estimated
08:15AM 61.3381 -10.5765 266° West  Level Estimated
08:16AM 61.3294 -10.8167 266° West  Level Estimated
08:17AM 61.3203 -11.0567 266° West  Level Estimated
08:18AM 61.3107 -11.2966 265° West  Level Estimated
08:19AM 61.3007 -11.5363 265° West  Level Estimated
08:20AM 61.2903 -11.7759 265° West  Level Estimated
08:21AM 61.2795 -12.0153 265° West  Level Estimated
08:22AM 61.2682 -12.2545 265° West  Level Estimated
08:23AM 61.2566 -12.4936 264° West  Level Estimated
08:24AM 61.2445 -12.7324 264° West  Level Estimated
08:25AM 61.2320 -12.9711 264° West  Level Estimated
08:26AM 61.2191 -13.2096 264° West  Level Estimated
08:27AM 61.2057 -13.4479 263° West  Level Estimated
08:28AM 61.1919 -13.6860 263° West  Level Estimated
08:29AM 61.1778 -13.9239 263° West  Level Estimated
08:30AM 61.1632 -14.1616 263° West  Level Estimated
08:31AM 61.1482 -14.3990 263° West  Level Estimated
08:32AM 61.1327 -14.6363 262° West  Level Estimated
08:33AM 61.1169 -14.8732 262° West  Level Estimated
08:34AM 61.1006 -15.1100 262° West  Level Estimated
08:35AM 61.0840 -15.3465 262° West  Level Estimated
08:36AM 61.0669 -15.5827 262° West  Level Estimated
08:37AM 61.0494 -15.8187 261° West  Level Estimated
08:38AM 61.0315 -16.0544 261° West  Level Estimated
08:39AM 61.0131 -16.2899 261° West  Level Estimated
08:40AM 60.9944 -16.5251 261° West  Level Estimated
08:41AM 60.9753 -16.7600 261° West  Level Estimated
08:42AM 60.9557 -16.9946 260° West  Level Estimated
08:43AM 60.9358 -17.2289 260° West  Level Estimated
08:44AM 60.9154 -17.4629 260° West  Level Estimated
08:45AM 60.8947 -17.6966 260° West  Level Estimated
08:46AM 60.8735 -17.9301 260° West  Level Estimated
08:47AM 60.8519 -18.1632 259° West  Level Estimated
08:48AM 60.8299 -18.3960 259° West  Level Estimated
08:49AM 60.8076 -18.6284 259° West  Level Estimated
08:50AM 60.7848 -18.8605 259° West  Level Estimated
08:51AM 60.7616 -19.0924 259° West  Level Estimated
08:52AM 60.7380 -19.3238 258° West  Level Estimated
08:53AM 60.7140 -19.5549 258° West  Level Estimated
08:54AM 60.6897 -19.7857 258° West  Level Estimated
08:55AM 60.6649 -20.0161 258° West  Level Estimated
08:56AM 60.6397 -20.2462 258° West  Level Estimated
08:57AM 60.6142 -20.4759 257° West  Level Estimated
08:58AM 60.5882 -20.7052 257° West  Level Estimated
08:59AM 60.5619 -20.9342 257° West  Level Estimated
09:00AM 60.5352 -21.1628 257° West  Level Estimated
09:01AM 60.5080 -21.3910 257° West  Level Estimated
09:02AM 60.4805 -21.6189 256° West  Level Estimated
09:03AM 60.4526 -21.8463 256° West  Level Estimated
09:04AM 60.4243 -22.0733 256° West  Level Estimated
09:05AM 60.3957 -22.3000 256° West  Level Estimated
09:06AM 60.3666 -22.5262 256° West  Level Estimated
09:07AM 60.3372 -22.7521 255° West  Level Estimated
09:08AM 60.3074 -22.9775 255° West  Level Estimated
09:09AM 60.2771 -23.2025 255° West  Level Estimated
09:10AM 60.2466 -23.4271 255° West  Level Estimated
09:11AM 60.2156 -23.6513 255° West  Level Estimated
09:12AM 60.1843 -23.8751 254° West  Level Estimated
09:13AM 60.1525 -24.0984 254° West  Level Estimated
09:14AM 60.1205 -24.3213 254° West  Level Estimated
09:15AM 60.0880 -24.5437 254° West  Level Estimated
09:16AM 60.0551 -24.7657 254° West  Level Estimated
09:17AM 60.0219 -24.9873 253° West  Level Estimated
09:18AM 59.9884 -25.2084 253° West  Level Estimated
09:19AM 59.9544 -25.4291 253° West  Level Estimated
09:20AM 59.9201 -25.6493 253° West  Level Estimated
09:21AM 59.8854 -25.8691 253° West  Level Estimated
09:22AM 59.8504 -26.0884 252° West  Level Estimated
09:23AM 59.8149 -26.3072 252° West  Level Estimated
09:24AM 59.7792 -26.5256 252° West  Level Estimated
09:25AM 59.7430 -26.7435 252° West  Level Estimated
09:26AM 59.7066 -26.9609 252° West  Level Estimated
09:27AM 59.6697 -27.1779 251° West  Level Estimated
09:28AM 59.6325 -27.3943 251° West  Level Estimated
09:29AM 59.5949 -27.6103 251° West  Level Estimated
09:30AM 59.5570 -27.8258 251° West  Level Estimated
09:31AM 59.5187 -28.0408 251° West  Level Estimated
09:32AM 59.4801 -28.2554 251° West  Level Estimated
09:33AM 59.4411 -28.4694 250° West  Level Estimated
09:34AM 59.4018 -28.6829 250° West  Level Estimated
09:35AM 59.3621 -28.8960 250° West  Level Estimated
09:36AM 59.3221 -29.1085 250° West  Level Estimated
09:37AM 59.2817 -29.3206 250° West  Level Estimated
09:38AM 59.2410 -29.5321 249° West  Level Estimated
09:39AM 59.2000 -29.7431 249° West  Level Estimated
09:40AM 59.1586 -29.9537 249° West  Level Estimated
09:41AM 59.1169 -30.1637 249° West  Level Estimated
09:42AM 59.0748 -30.3732 249° West  Level Estimated
09:43AM 59.0324 -30.5821 249° West  Level Estimated
09:44AM 58.9896 -30.7906 248° West  Level Estimated
09:45AM 58.9466 -30.9986 248° West  Level Estimated
09:46AM 58.9031 -31.2060 248° West  Level Estimated
09:47AM 58.8594 -31.4129 248° West  Level Estimated
09:48AM 58.8153 -31.6193 248° West  Level Estimated
09:49AM 58.7709 -31.8251 247° West  Level Estimated
09:50AM 58.7262 -32.0305 247° West  Level Estimated
09:51AM 58.6812 -32.2353 247° West  Level Estimated
09:52AM 58.6358 -32.4395 247° West  Level Estimated
09:53AM 58.5901 -32.6433 247° West  Level Estimated
09:54AM 58.5441 -32.8465 247° West  Level Estimated
09:55AM 58.4977 -33.0491 246° West  Level Estimated
09:56AM 58.4511 -33.2513 246° West  Level Estimated
09:57AM 58.4041 -33.4529 246° West  Level Estimated
09:58AM 58.3568 -33.6539 246° West  Level Estimated
09:59AM 58.3092 -33.8544 246° West  Level Estimated
10:00AM 58.2613 -34.0544 246° West  Level Estimated
10:01AM 58.2130 -34.2538 245° Southwest  Level Estimated
10:02AM 58.1645 -34.4527 245° Southwest  Level Estimated
10:03AM 58.1156 -34.6511 245° Southwest  Level Estimated
10:04AM 58.0665 -34.8489 245° Southwest  Level Estimated
10:05AM 58.0170 -35.0461 245° Southwest  Level Estimated
10:06AM 57.9673 -35.2429 245° Southwest  Level Estimated
10:07AM 57.9172 -35.4390 244° Southwest  Level Estimated
10:08AM 57.8668 -35.6346 244° Southwest  Level Estimated
10:09AM 57.8161 -35.8297 244° Southwest  Level Estimated
10:10AM 57.7652 -36.0242 244° Southwest  Level Estimated
10:11AM 57.7139 -36.2182 244° Southwest  Level Estimated
10:12AM 57.6623 -36.4116 244° Southwest  Level Estimated
10:13AM 57.6105 -36.6045 243° Southwest  Level Estimated
10:14AM 57.5583 -36.7968 243° Southwest  Level Estimated
10:15AM 57.5059 -36.9886 243° Southwest  Level Estimated
10:16AM 57.4532 -37.1798 243° Southwest  Level Estimated
10:17AM 57.4001 -37.3704 243° Southwest  Level Estimated
10:18AM 57.3468 -37.5605 243° Southwest  Level Estimated
10:19AM 57.2932 -37.7501 242° Southwest  Level Estimated
10:20AM 57.2394 -37.9391 242° Southwest  Level Estimated
10:21AM 57.1852 -38.1275 242° Southwest  Level Estimated
10:22AM 57.1308 -38.3154 242° Southwest  Level Estimated
10:23AM 57.0760 -38.5028 242° Southwest  Level Estimated
10:24AM 57.0210 -38.6896 242° Southwest  Level Estimated
10:25AM 56.9658 -38.8758 241° Southwest  Level Estimated
10:26AM 56.9102 -39.0615 241° Southwest  Level Estimated
10:27AM 56.8544 -39.2466 241° Southwest  Level Estimated
10:28AM 56.7983 -39.4312 241° Southwest  Level Estimated
10:29AM 56.7419 -39.6152 241° Southwest  Level Estimated
10:30AM 56.6853 -39.7987 241° Southwest  Level Estimated
10:31AM 56.6284 -39.9816 241° Southwest  Level Estimated
10:32AM 56.5712 -40.1640 240° Southwest  Level Estimated
10:33AM 56.5137 -40.3458 240° Southwest  Level Estimated
10:34AM 56.4560 -40.5271 240° Southwest  Level Estimated
10:35AM 56.3981 -40.7078 240° Southwest  Level Estimated
10:36AM 56.3398 -40.8879 240° Southwest  Level Estimated
10:37AM 56.2813 -41.0676 240° Southwest  Level Estimated
10:38AM 56.2226 -41.2466 240° Southwest  Level Estimated
10:39AM 56.1636 -41.4251 239° Southwest  Level Estimated
10:40AM 56.1043 -41.6031 239° Southwest  Level Estimated
10:41AM 56.0448 -41.7805 239° Southwest  Level Estimated
10:42AM 55.9850 -41.9574 239° Southwest  Level Estimated
10:43AM 55.9250 -42.1337 239° Southwest  Level Estimated
10:44AM 55.8647 -42.3095 239° Southwest  Level Estimated
10:45AM 55.8042 -42.4847 238° Southwest  Level Estimated
10:46AM 55.7434 -42.6594 238° Southwest  Level Estimated
10:47AM 55.6824 -42.8335 238° Southwest  Level Estimated
10:48AM 55.6211 -43.0071 238° Southwest  Level Estimated
10:49AM 55.5596 -43.1802 238° Southwest  Level Estimated
10:50AM 55.4958 -43.3582 238° Southwest  Level Estimated
10:51AM 55.4318 -43.5357 238° Southwest  Level Estimated
10:51AM 59.9500 -55.8000 237° Southwest 480 552 36,000  Level Gander Center
10:52AM 55.3675 -43.7128 237° Southwest  Level Estimated
10:52AM 59.9000 -56.0333 247° West 480 552 36,000  Level Gander Center
10:53AM 55.3029 -43.8893 237° Southwest  Level Estimated
10:53AM 59.8667 -56.3167 257° West 480 552 36,000  Level Gander Center
10:54AM 55.2381 -44.0652 237° Southwest  Level Estimated
10:54AM 59.7833 -56.5167 230° Southwest 480 552 36,000  Level Gander Center
10:55AM 55.1730 -44.2406 237° Southwest  Level Estimated
10:55AM 59.7333 -56.7833 250° West 480 552 36,000  Level Gander Center
10:56AM 55.1077 -44.4154 237° Southwest  Level Estimated
10:56AM 59.6833 -57.0333 248° West 480 552 36,000  Level Gander Center
10:57AM 59.6500 -57.2333 252° West 480 552 36,000  Level Gander Center
10:58AM 59.5833 -57.4667 241° Southwest 480 552 36,000  Level Gander Center
10:59AM 59.5333 -57.7000 247° West 480 552 36,000  Level Gander Center
11:00AM 59.4833 -57.9333 247° West 470 541 36,000  Level Gander Center
11:01AM 59.4333 -58.1667 247° West 470 541 36,000  Level Gander Center
11:02AM 59.3833 -58.4000 247° West 470 541 36,000  Level Gander Center
11:03AM 59.3333 -58.6000 244° Southwest 470 541 36,000  Level Gander Center
11:04AM 59.2667 -58.8667 244° Southwest 470 541 36,000  Level Gander Center
11:05AM 59.2167 -59.1000 247° West 470 541 36,000  Level Gander Center
11:06AM 59.1500 -59.3333 241° Southwest 470 541 36,000  Level Gander Center
11:07AM 59.1000 -59.5667 247° West 480 552 36,000  Level Gander Center
11:08AM 59.0500 -59.8000 247° West 480 552 36,000  Level Gander Center
11:09AM 58.9833 -60.0167 239° Southwest 480 552 36,000  Level Gander Center
11:10AM 58.9333 -60.2500 248° West 470 541 36,000  Level Gander Center
11:11AM 58.8667 -60.4833 241° Southwest 470 541 36,000  Level Gander Center
11:12AM 58.8000 -60.6667 235° Southwest 460 529 36,000  Level Gander Center
11:13AM 58.7333 -60.9333 244° Southwest 460 529 36,000  Level Gander Center
11:14AM 58.6667 -61.1500 239° Southwest 460 529 36,000  Level Gander Center
11:15AM 58.6000 -61.3833 241° Southwest 460 529 36,000  Level Gander Center
11:16AM 58.5333 -61.5667 235° Southwest 460 529 36,000  Level Gander Center
11:17AM 58.4667 -61.8000 241° Southwest 460 529 36,000  Level Gander Center
11:18AM 58.4167 -61.9833 243° Southwest 450 518 36,000  Level Gander Center
11:19AM 58.3500 -62.2000 240° Southwest 460 529 36,000  Level Gander Center
11:20AM 58.2833 -62.3833 235° Southwest 460 529 36,000  Level Gander Center
11:21AM 58.2167 -62.6167 242° Southwest 450 518 36,000  Level Gander Center
11:22AM 58.1500 -62.8000 235° Southwest 450 518 36,000  Level Gander Center
11:23AM 58.1000 -63.0167 246° West 460 529 36,000  Level Gander Center
11:24AM 58.0167 -63.2000 229° Southwest 460 529 36,000  Level Gander Center
11:25AM 57.9500 -63.4167 240° Southwest 460 529 36,000  Level Gander Center
11:26AM 57.8833 -63.6333 240° Southwest 450 518 36,000  Level Gander Center
11:27AM 57.8167 -63.8167 236° Southwest 460 529 36,000  Level Gander Center
11:28AM 57.7333 -64.0333 234° Southwest 460 529 36,000  Level Gander Center
11:29AM 57.6833 -64.2500 247° West 460 529 36,000  Level Gander Center
11:30AM 57.6167 -64.4333 236° Southwest 460 529 36,000  Level Gander Center
11:31AM 57.5500 -64.6333 238° Southwest 470 541 36,000  Level Gander Center
11:32AM 57.4667 -64.8500 234° Southwest 470 541 36,000  Level Gander Center
11:33AM 57.4000 -65.0333 236° Southwest 460 529 36,000  Level Gander Center
11:34AM 57.3333 -65.2333 238° Southwest 460 529 36,000  Level Gander Center
11:35AM 57.2500 -65.4167 230° Southwest 470 541 36,000  Level Gander Center
11:36AM 57.1833 -65.6167 238° Southwest 470 541 36,000  Level Gander Center
11:37AM 57.1000 -65.8333 235° Southwest 470 541 36,000  Level Gander Center
11:38AM 57.0500 -66.0333 245° Southwest 460 529 36,000  Level Gander Center
11:39AM 56.9833 -66.2167 236° Southwest 460 529 36,000  Level Gander Center
11:40AM 56.9000 -66.4167 233° Southwest 460 529 36,000  Level Gander Center
11:41AM 56.8333 -66.6167 239° Southwest 470 541 36,000  Level Gander Center
11:42AM 56.7500 -66.8333 235° Southwest 460 529 36,000  Level Gander Center
11:43AM 56.6833 -67.0000 234° Southwest 460 529 36,000  Level Gander Center
11:44AM 56.6000 -67.2000 233° Southwest 470 541 36,000  Level Gander Center
11:45AM 56.5167 -67.4000 233° Southwest 460 529 36,000  Level Gander Center
11:46AM 56.4500 -67.5667 234° Southwest 460 529 36,000  Level Gander Center
11:47AM 56.3833 -67.7667 239° Southwest 460 529 36,000  Level Gander Center
11:48AM 56.3167 -67.9333 234° Southwest 470 541 36,000  Level Gander Center
11:49AM 56.2333 -68.1333 233° Southwest 460 529 36,000  Level Gander Center
11:50AM 56.1500 -68.3333 233° Southwest 460 529 36,000  Level Gander Center
11:51AM 56.0833 -68.5000 234° Southwest 450 518 36,000  Level Gander Center
11:52AM 56.0000 -68.7000 233° Southwest 450 518 36,000  Level Gander Center
11:53AM 55.9333 -68.8667 235° Southwest 450 518 36,000  Level Gander Center
11:54AM 55.8667 -69.0667 239° Southwest 450 518 36,000  Level Gander Center
11:55AM 55.7833 -69.2167 225° Southwest 450 518 36,000  Level Gander Center
11:56AM 55.7167 -69.3833 235° Southwest 450 518 36,000  Level Gander Center
11:57AM 55.6333 -69.5833 234° Southwest 450 518 36,000  Level Gander Center
11:58AM 55.5667 -69.7500 235° Southwest 450 518 36,000  Level Gander Center
11:59AM 55.4833 -69.9333 231° Southwest 450 518 36,000  Level Gander Center
12:00PM 55.4167 -70.1000 235° Southwest 450 518 36,000  Level Gander Center
12:01PM 55.3333 -70.2833 231° Southwest 450 518 36,000  Level Gander Center
12:02PM 55.2500 -70.4500 229° Southwest 450 518 36,000  Level Gander Center
12:03PM 55.1833 -70.6000 232° Southwest 450 518 36,000  Level Gander Center
12:04PM 55.1000 -70.8000 234° Southwest 450 518 36,000  Level Gander Center
12:05PM 55.0167 -70.9833 232° Southwest 440 506 36,000  Level Gander Center
12:06PM 54.9500 -71.1333 232° Southwest 440 506 36,000  Level Gander Center
12:07PM 54.8667 -71.3000 229° Southwest 450 518 36,000  Level Gander Center
12:08PM 54.8000 -71.4833 238° Southwest 440 506 36,000  Level Gander Center
12:09PM 54.7167 -71.6333 226° Southwest 440 506 36,000  Level Gander Center
12:10PM 54.6333 -71.7833 226° Southwest 440 506 36,000  Level Gander Center
12:11PM 54.5667 -71.9500 235° Southwest 440 506 36,000  Level Gander Center
12:12PM 54.4833 -72.1333 232° Southwest 440 506 36,000  Level Gander Center
12:13PM 54.4167 -72.2833 233° Southwest 440 506 36,000  Level Gander Center
12:14PM 54.3500 -72.4333 233° Southwest 440 506 36,000  Level Gander Center
12:15PM 54.2667 -72.6167 232° Southwest 440 506 36,000  Level Gander Center
12:16PM 54.1833 -72.7667 227° Southwest 440 506 36,000  Level Gander Center
12:17PM 54.1167 -72.9167 233° Southwest 440 506 36,000  Level Gander Center
12:18PM 54.0333 -73.1000 232° Southwest 440 506 36,000  Level Gander Center
12:19PM 53.9500 -73.2500 227° Southwest 440 506 36,000  Level Gander Center
12:20PM 53.8667 -73.4333 232° Southwest 440 506 36,000  Level Gander Center
12:21PM 53.8000 -73.5833 233° Southwest 440 506 36,000  Level Gander Center
12:22PM 53.7000 -73.7167 218° Southwest 440 506 36,000  Level Gander Center
12:23PM 53.6000 -73.8333 215° Southwest 440 506 36,000  Level Gander Center
12:24PM 53.4833 -73.9167 203° Southwest 440 506 36,000  Level Gander Center
12:25PM 53.3833 -74.0167 211° Southwest 450 518 36,000  Level Gander Center
12:26PM 53.2667 -74.1000 203° Southwest 440 506 36,000  Level Gander Center
12:27PM 53.1500 -74.1833 203° Southwest 440 506 36,000  Level Gander Center
12:28PM 53.0500 -74.2833 211° Southwest 440 506 36,000  Level Gander Center
12:29PM 52.9500 -74.3667 207° Southwest 440 506 36,000  Level Gander Center
12:30PM 52.8333 -74.4500 203° Southwest 440 506 36,000  Level Gander Center
12:32PM 52.6833 -74.5500 202° Southwest 440 506 36,000  Level Montreal Center
12:33PM 52.5833 -74.6333 207° Southwest 440 506 36,000  Level Montreal Center
12:34PM 52.4500 -74.7167 201° Southwest 440 506 36,000  Level Montreal Center
12:35PM 52.3333 -74.8000 204° Southwest 440 506 36,000  Level Montreal Center
12:36PM 52.2333 -74.9000 211° Southwest 410 472 36,000  Level Montreal Center
12:37PM 52.1333 -74.9833 207° Southwest 440 506 36,000  Level Montreal Center
12:38PM 52.0167 -75.0667 204° Southwest 450 518 36,000  Level Montreal Center
12:39PM 51.9167 -75.1500 207° Southwest 430 495 36,000  Level Montreal Center
12:40PM 51.8000 -75.2333 204° Southwest 430 495 36,000  Level Montreal Center
12:41PM 51.7000 -75.3167 207° Southwest 430 495 36,000  Level Montreal Center
12:42PM 51.5833 -75.4167 208° Southwest 430 495 36,000  Level Montreal Center
12:43PM 51.4833 -75.4833 203° Southwest 430 495 36,000  Level Montreal Center
12:44PM 51.3667 -75.5833 208° Southwest 430 495 36,000  Level Montreal Center
12:45PM 51.2667 -75.6500 203° Southwest 430 495 36,000  Level Montreal Center
12:46PM 51.1500 -75.7500 208° Southwest 430 495 36,000  Level Montreal Center
12:47PM 51.0500 -75.8000 197° South 420 483 36,000  Level Montreal Center
12:48PM 50.9500 -75.8833 208° Southwest 420 483 36,000  Level Montreal Center
12:49PM 50.8333 -75.9667 204° Southwest 420 483 36,000  Level Montreal Center
12:50PM 50.7333 -76.0500 208° Southwest 420 483 36,000  Level Montreal Center
12:51PM 50.6167 -76.1167 200° South 420 483 36,000  Level Montreal Center
12:52PM 50.5167 -76.2000 208° Southwest 420 483 36,000  Level Montreal Center
12:53PM 50.4000 -76.2833 204° Southwest 420 483 36,000  Level Montreal Center
12:54PM 50.3000 -76.3667 208° Southwest 420 483 36,000  Level Montreal Center
12:55PM 50.2000 -76.4333 203° Southwest 410 472 36,000  Level Montreal Center
12:56PM 50.0833 -76.5167 205° Southwest 410 472 36,000  Level Montreal Center
12:57PM 49.9833 -76.6000 208° Southwest 410 472 36,000  Level Montreal Center
12:58PM 49.8667 -76.6667 200° South 410 472 36,000  Level Montreal Center
12:59PM 49.7667 -76.7167 198° South 410 472 36,000  Level Montreal Center
01:00PM 49.6667 -76.8167 213° Southwest 410 472 36,000  Level Montreal Center
01:01PM 49.5667 -76.8667 198° South 400 460 36,000  Level Montreal Center
01:02PM 49.4500 -76.9500 205° Southwest 410 472 36,000  Level Montreal Center
01:03PM 49.3500 -77.0167 203° Southwest 430 495 36,000  Level Montreal Center
01:04PM 49.2500 -77.1000 209° Southwest 390 449 36,000  Level Montreal Center
01:05PM 49.1500 -77.1667 204° Southwest 410 472 36,000  Level Montreal Center
01:06PM 49.0500 -77.2500 209° Southwest 410 472 36,000  Level Montreal Center
01:07PM 48.9167 -77.3167 198° South 410 472 36,000  Level Montreal Center
01:08PM 48.8333 -77.3667 202° Southwest 410 472 36,000  Level Montreal Center
01:09PM 48.7167 -77.4667 209° Southwest 400 460 36,000  Level Montreal Center
01:10PM 48.6167 -77.5167 198° South 410 472 36,000  Level Montreal Center
01:11PM 48.5167 -77.5833 204° Southwest 410 472 36,000  Level Montreal Center
01:12PM 48.4167 -77.6667 209° Southwest 410 472 36,000  Level Montreal Center
01:13PM 48.3167 -77.7333 204° Southwest 410 472 36,000  Level Montreal Center
01:14PM 48.2167 -77.8000 204° Southwest 410 472 36,000  Level Montreal Center
01:15PM 48.1167 -77.8500 198° South 410 472 36,000  Level Montreal Center
01:16PM 47.9833 -77.9167 199° South 410 472 36,000  Level Montreal Center
01:17PM 47.8833 -78.0000 209° Southwest 410 472 36,000  Level Montreal Center
01:18PM 47.7833 -78.0333 193° South 400 460 36,000  Level Montreal Center
01:19PM 47.6833 -78.1167 209° Southwest 400 460 36,000  Level Montreal Center
01:20PM 47.5833 -78.1500 193° South 400 460 36,000  Level Montreal Center
01:21PM 47.4667 -78.2333 206° Southwest 400 460 36,000  Level Montreal Center
01:22PM 47.3833 -78.3000 208° Southwest 400 460 36,000  Level Montreal Center
01:23PM 47.2667 -78.3500 196° South 390 449 36,000  Level Montreal Center
01:24PM 47.1667 -78.4167 204° Southwest 390 449 36,000  Level Montreal Center
01:25PM 47.0500 -78.4500 191° South 400 460 36,000  Level Montreal Center
01:26PM 46.9500 -78.5167 204° Southwest 390 449 36,000  Level Montreal Center
01:27PM 46.8500 -78.5667 199° South 390 449 36,000  Level Montreal Center
01:28PM 46.7500 -78.6333 205° Southwest 390 449 36,000  Level Montreal Center
01:29PM 46.6500 -78.7000 205° Southwest 390 449 36,000  Level Montreal Center
01:30PM 46.5500 -78.7500 199° South 400 460 36,000  Level Montreal Center
01:31PM 46.4500 -78.8167 205° Southwest 400 460 36,000  Level Montreal Center
01:35PM 45.9659 -79.0663 205° Southwest 395 455 36,000  Level FlightAware ADS-B (CYKF)
01:39PM 45.6839 -79.2175 201° Southwest 394 453 36,000  Level FlightAware ADS-B (CYKF)
01:41PM 45.3893 -79.3737 200° South 389 448 36,000  Level FlightAware ADS-B (CYKF)
01:41PM 45.3203 -79.4100 200° South 388 447 36,000  Level FlightAware ADS-B (CYKF)
01:42PM 45.2835 -79.4294 200° South 387 445 36,000  Level FlightAware ADS-B (CYKF)
01:43PM 45.1907 -79.4782 200° South 387 445 36,000  Level FlightAware ADS-B (CYKF)
01:43PM 45.1367 -79.5064 200° South 387 445 36,000  Level FlightAware ADS-B (CYKF)
01:44PM 45.0190 -79.5677 200° South 385 443 36,000  Level FlightAware ADS-B (CYKF)
01:45PM 45.0083 -79.5733 200° South 381 438 36,000  Level FlightAware ADS-B (CYKF)
01:46PM 44.8939 -79.6327 200° South 378 435 36,000  Level FlightAware ADS-B (CYKF)
01:48PM 44.6667 -79.7498 200° South 375 432 36,000  Level FlightAware ADS-B (CYKF)
01:49PM 44.6107 -79.7787 200° South 367 422 36,000  Level FlightAware ADS-B (CYKF)
01:50PM 44.4845 -79.8811 210° Southwest 364 419 36,000  Level FlightAware ADS-B (CYKF)
01:51PM 44.4221 -79.9376 213° Southwest 365 420 36,000  Level FlightAware ADS-B (CYKF)
01:52PM 44.3543 -79.9985 213° Southwest 365 420 36,000  Level FlightAware ADS-B (CYKF)
01:52PM 44.3091 -80.0391 213° Southwest 364 419 36,000  Level FlightAware ADS-B (CYKF)
01:53PM 44.2569 -80.0857 213° Southwest 363 418 36,000  Level FlightAware ADS-B (CYKF)
01:53PM 44.2006 -80.1360 213° Southwest 363 418 36,000  Level FlightAware ADS-B (CYKF)
01:54PM 44.1485 -80.1825 213° Southwest 363 418 36,000  Level FlightAware ADS-B (CYKF)
01:55PM 44.0574 -80.2634 213° Southwest 363 418 36,000  Level FlightAware ADS-B (CYKF)
01:56PM 43.9996 -80.3146 213° Southwest 363 418 36,000  Level FlightAware ADS-B (CYKF)
01:56PM 43.9422 -80.3652 212° Southwest 364 419 36,000  Level FlightAware ADS-B (CYKF)
01:58PM 43.8005 -80.4900 212° Southwest 365 420 36,000  Level FlightAware ADS-B (CYKF)
01:59PM 43.7811 -80.5070 212° Southwest 364 419 36,000  Level FlightAware ADS-B (CZBA)
02:00PM 43.6758 -80.5991 212° Southwest 363 418 36,000  Level FlightAware ADS-B (CYHM)
02:00PM 43.6677 -80.6062 212° Southwest 363 418 36,000  Level FlightAware ADS-B (CZBA)
02:01PM 43.5726 -80.6890 212° Southwest 363 418 36,000  Level FlightAware ADS-B (CYKF)
02:01PM 43.5159 -80.7382 212° Southwest 364 419 36,000  Level FlightAware ADS-B (CYKF)
02:02PM 43.4609 -80.7858 212° Southwest 364 419 36,000  Level FlightAware ADS-B (CYKF)
02:03PM 43.4190 -80.8222 212° Southwest 365 420 36,000  Level FlightAware ADS-B (CYKF)
02:04PM 43.3148 -80.9119 212° Southwest 366 421 36,000  Level FlightAware ADS-B (CYKF)
02:04PM 43.2572 -80.9614 212° Southwest 369 425 36,000  Level FlightAware ADS-B (CYKF)
02:05PM 43.1999 -81.0106 212° Southwest 369 425 36,000  Level FlightAware ADS-B (CYKF)
02:06PM 43.1422 -81.0599 212° Southwest 369 425 36,000  Level FlightAware ADS-B (CYKF)
02:06PM 43.0949 -81.1004 212° Southwest 368 423 36,000  Level FlightAware ADS-B (CYKF)
02:07PM 43.0262 -81.1559 211° Southwest 371 427 36,000  Level FlightAware ADS-B (CYKF)
02:08PM 42.9655 -81.1931 204° Southwest 371 427 36,000  Level FlightAware ADS-B (CYKF)
02:09PM 42.8793 -81.2470 205° Southwest 370 426 36,000  Level FlightAware ADS-B (CYKF)
02:10PM 42.7799 -81.3083 204° Southwest 369 425 36,000  Level FlightAware ADS-B (CYKF)
02:10PM 42.7233 -81.3430 204° Southwest 370 426 36,000  Level FlightAware ADS-B (CYKF)
02:11PM 42.6547 -81.3851 204° Southwest 371 427 36,000  Level FlightAware ADS-B (CYKF)
02:12PM 42.5911 -81.4240 204° Southwest 371 427 36,000  Level FlightAware ADS-B (CYKF)
02:12PM 42.5412 -81.4545 204° Southwest 370 426 36,000  Level FlightAware ADS-B (CYKF)
02:13PM 42.4674 -81.4994 204° Southwest 370 426 36,000  Level FlightAware ADS-B (CYKF)
02:14PM 42.3915 -81.5454 204° Southwest 367 422 36,000  Level FlightAware ADS-B (CYKF)
02:15PM 42.3176 -81.5903 204° Southwest 366 421 36,000  Level FlightAware ADS-B (CYKF)
02:16PM 42.1539 -81.6892 204° Southwest 368 423 36,000  Level FlightAware ADS-B (CYKF)
02:17PM 42.0611 -81.7451 204° Southwest 368 423 36,000  Level FlightAware ADS-B (CYKF)
02:19PM 41.9639 -81.8022 204° Southwest 365 420 36,000  Level Cleveland Center
02:20PM 41.8711 -81.8586 204° Southwest 363 418 36,000  Level Cleveland Center
02:21PM 41.7783 -81.9136 204° Southwest 362 417 36,000  Level Cleveland Center
02:22PM 41.6850 -81.9681 204° Southwest 364 419 36,000  Level Cleveland Center
02:23PM 41.5928 -82.0231 204° Southwest 363 418 36,000  Level Cleveland Center
02:24PM 41.4856 -82.0861 204° Southwest 360 414 36,000  Level Cleveland Center
02:25PM 41.3936 -82.1411 204° Southwest 362 417 36,000  Level Cleveland Center
02:26PM 41.2947 -82.1831 198° South 372 428 36,000  Level Cleveland Center
02:27PM 41.1956 -82.2197 196° South 370 426 36,000  Level Cleveland Center
02:28PM 41.0992 -82.2542 195° South 360 414 36,000  Level Cleveland Center
02:29PM 41.0039 -82.2881 195° South 355 409 36,000  Level Cleveland Center
02:31PM 40.8333 -82.3492 195° South 341 392 36,000  Level FlightAware ADS-B
02:35PM 40.4584 -82.4813 195° South 340 391 36,000  Level FlightAware ADS-B
02:35PM 40.3955 -82.5034 195° South 339 390 36,000  Level FlightAware ADS-B
02:37PM 40.2641 -82.5491 195° South 338 389 36,000  Level FlightAware ADS-B
02:37PM 40.2186 -82.5649 195° South 337 388 36,000  Level FlightAware ADS-B
02:38PM 40.1562 -82.5849 194° South 344 396 36,000  Level FlightAware ADS-B
02:39PM 40.0895 -82.5922 185° South 354 407 36,000  Level FlightAware ADS-B
02:39PM 40.0331 -82.5962 183° South 353 406 36,000  Level FlightAware ADS-B
02:40PM 39.9582 -82.6016 183° South 355 409 36,000  Level FlightAware ADS-B
02:41PM 39.8972 -82.6057 183° South 355 409 36,000  Level FlightAware ADS-B
02:41PM 39.8356 -82.6099 183° South 356 410 36,000  Level FlightAware ADS-B
02:42PM 39.7305 -82.6170 183° South 356 410 36,000  Level FlightAware ADS-B
02:45PM 39.4992 -82.6326 183° South 361 415 36,000  Level FlightAware ADS-B (KPMH)
02:46PM 39.4044 -82.6388 183° South 360 414 36,000  Level FlightAware ADS-B (KPMH)
02:47PM 39.3099 -82.6451 183° South 360 414 36,000  Level FlightAware ADS-B (KPMH)
02:47PM 39.2361 -82.6500 183° South 359 413 36,000  Level FlightAware ADS-B (KPMH)
02:53PM 38.7313 -82.6833 183° South 358 412 36,000  Level FlightAware ADS-B (KBRY)
02:55PM 38.4994 -82.6989 183° South 349 402 36,000  Level Indianapolis Center
02:56PM 38.4036 -82.7044 183° South 345 397 36,000  Level Indianapolis Center
02:57PM 38.3083 -82.7128 184° South 343 395 36,000  Level Indianapolis Center
02:58PM 38.2122 -82.7175 182° South 343 395 36,000  Level Indianapolis Center
02:59PM 38.1175 -82.7244 183° South 342 394 36,000  Level Indianapolis Center
03:00PM 38.0233 -82.7297 183° South 338 389 36,000  Level Indianapolis Center
03:01PM 37.9142 -82.7369 183° South 336 387 36,000  Level Indianapolis Center
03:02PM 37.8214 -82.7431 183° South 333 383 36,000  Level Indianapolis Center
03:03PM 37.7286 -82.7519 184° South 334 384 36,000  Level Indianapolis Center
03:04PM 37.6375 -82.7694 189° South 331 381 36,000  Level Indianapolis Center
03:05PM 37.5536 -82.7989 196° South 309 356 36,000  Level Indianapolis Center
03:06PM 37.4792 -82.8503 209° Southwest 304 350 36,000  Level Indianapolis Center
03:07PM 37.4042 -82.9006 208° Southwest 305 351 36,000  Level Indianapolis Center
03:08PM 37.3306 -82.9511 209° Southwest 303 349 36,000  Level Indianapolis Center
03:09PM 37.2439 -83.0092 208° Southwest 303 349 36,000  Level Indianapolis Center
03:10PM 37.1694 -83.0592 208° Southwest 303 349 36,000  Level Indianapolis Center
03:11PM 37.0964 -83.1100 209° Southwest 302 348 36,000  Level Indianapolis Center
03:12PM 37.0203 -83.1589 207° Southwest 308 354 36,000  Level Indianapolis Center
03:13PM 36.9450 -83.2106 209° Southwest 310 357 36,000  Level Indianapolis Center
03:14PM 36.8569 -83.2683 208° Southwest 308 354 36,000  Level Indianapolis Center
03:15PM 36.7808 -83.3186 208° Southwest 308 354 36,000  Level Indianapolis Center
03:16PM 36.7047 -83.3697 208° Southwest 310 357 36,000  Level Indianapolis Center
03:17PM 36.6269 -83.4211 208° Southwest 314 361 36,000  Level Indianapolis Center
03:18PM 36.5497 -83.4717 208° Southwest 314 361 36,000  Level Indianapolis Center
03:19PM 36.4689 -83.5256 208° Southwest 312 359 36,000  Level Indianapolis Center
03:20PM 36.3925 -83.5764 208° Southwest 311 358 36,000  Level Indianapolis Center
03:21PM 36.3144 -83.6269 208° Southwest 314 361 36,000  Level Indianapolis Center
03:23PM 36.2361 -83.6789 208° Southwest 317 365 36,000  Level Indianapolis Center
03:24PM 36.1569 -83.7283 207° Southwest 318 366 36,000  Level Indianapolis Center
03:24PM 36.0789 -83.7819 209° Southwest 313 360 36,000  Level Atlanta Center
03:25PM 36.0017 -83.8333 208° Southwest 318 366 36,000  Level Atlanta Center
03:26PM 35.9225 -83.8822 207° Southwest 318 366 36,000  Level Atlanta Center
03:27PM 35.8308 -83.9133 195° South 324 373 36,000  Level Atlanta Center
03:28PM 35.7369 -83.9364 191° South 334 384 36,000  Level Atlanta Center
03:29PM 35.6536 -83.9569 191° South 339 390 36,000  Level Atlanta Center
03:30PM 35.5617 -83.9800 192° South 339 390 36,000  Level Atlanta Center
03:31PM 35.4658 -84.0031 191° South 344 396 36,000  Level Atlanta Center
03:32PM 35.3719 -84.0233 190° South 344 396 36,000  Level Atlanta Center
03:33PM 35.2781 -84.0489 193° South 344 396 36,000  Level Atlanta Center
03:34PM 35.1819 -84.0719 191° South 350 403 36,000  Level Atlanta Center
03:35PM 35.0861 -84.0947 191° South 355 409 36,000  Level Atlanta Center
03:36PM 34.9922 -84.1175 191° South 355 409 36,000  Level Atlanta Center
03:37PM 34.8961 -84.1400 191° South 355 409 36,000  Level Atlanta Center
03:38PM 34.8003 -84.1628 191° South 355 409 36,000  Level Atlanta Center
03:39PM 34.7061 -84.1878 192° South 355 409 36,000  Level Atlanta Center
03:40PM 34.6019 -84.2053 188° South 350 403 36,000  Level Atlanta Center
03:41PM 34.5078 -84.2303 192° South 350 403 36,000  Level Atlanta Center
03:42PM 34.4097 -84.2528 191° South 350 403 36,000  Level Atlanta Center
03:43PM 34.3136 -84.2753 191° South 356 410 36,000  Level Atlanta Center
03:44PM 34.2156 -84.2975 191° South 356 410 36,000  Level Atlanta Center
03:45PM 34.1258 -84.3197 192° South 356 410 36,000  Level Atlanta Center
03:46PM 34.0256 -84.3472 193° South 364 419 36,000  Level Atlanta Center
03:47PM 33.9275 -84.3667 189° South 370 426 36,000  Level Atlanta Center
03:48PM 33.8272 -84.3914 192° South 370 426 36,000  Level Atlanta Center
03:49PM 33.7164 -84.4183 191° South 365 420 36,000  Level Atlanta Center
03:50PM 33.6142 -84.4353 188° South 370 426 36,000  Level Atlanta Center
03:51PM 33.5078 -84.4350 180° South 380 437 36,000  Level Atlanta Center
03:52PM 33.3992 -84.4369 181° South 385 443 36,000  Level Atlanta Center
03:53PM 33.2947 -84.4314 177° South 385 443 36,000  Level Atlanta Center
03:54PM 33.1842 -84.4311 180° South 385 443 36,000  Level Atlanta Center
03:55PM 33.0756 -84.4306 180° South 385 443 36,000  Level Atlanta Center
03:56PM 32.9775 -84.4300 180° South 385 443 36,000 -300 Level Atlanta Center
03:57PM 32.8669 -84.4272 179° South 385 443 35,400 -540 Descending Atlanta Center
03:58PM 32.7583 -84.4192 176° South 385 443 35,000 -240 Descending Atlanta Center
03:59PM 32.6519 -84.4164 179° South 385 443 35,000  Level Atlanta Center
04:00PM 32.5414 -84.4158 180° South 385 443 35,000  Level Atlanta Center
04:01PM 32.4308 -84.4006 173° South 390 449 35,000  Level Atlanta Center
04:02PM 32.3200 -84.3781 170° South 395 455 35,000  Level Atlanta Center
04:03PM 32.2075 -84.3556 170° South 406 467 35,000  Level Atlanta Center
04:04PM 32.1228 -84.3375 170° South 405 466 35,000  Level Jacksonville Center
04:05PM 32.0228 -84.3161 170° South 412 474 35,000  Level Jacksonville Center
04:06PM 31.9103 -84.2975 172° South 407 468 35,000  Level Jacksonville Center
04:07PM 31.8000 -84.2761 171° South 407 468 35,000  Level Jacksonville Center
04:08PM 31.6958 -84.2525 169° South 413 475 35,000  Level Jacksonville Center
04:09PM 31.5856 -84.2072 161° South 413 475 35,000  Level Jacksonville Center
04:10PM 31.4711 -84.1567 159° South 418 481 35,000  Level Jacksonville Center
04:15PM 30.8684 -83.8970 159° South 415 478 35,000  Level FlightAware ADS-B (KTLH)
04:16PM 30.7588 -83.8508 160° South 416 479 35,000  Level FlightAware ADS-B (KTLH)
04:17PM 30.6842 -83.8194 160° South 417 480 35,000  Level FlightAware ADS-B (KTLH)
04:18PM 30.5796 -83.7754 160° South 418 481 35,000  Level FlightAware ADS-B (KTLH)
04:19PM 30.5121 -83.7471 160° South 422 486 35,000  Level FlightAware ADS-B (KTLH)
04:19PM 30.4358 -83.7151 160° South 426 490 35,000  Level FlightAware ADS-B (KTLH)
04:20PM 30.3616 -83.6841 160° South 428 493 35,000  Level FlightAware ADS-B (KTLH)
04:21PM 30.2496 -83.6372 160° South 428 493 35,000  Level FlightAware ADS-B (KTLH)
04:21PM 30.1903 -83.6125 160° South 428 493 35,000  Level FlightAware ADS-B (KTLH)
04:23PM 30.0394 -83.5525 160° South 430 495 35,000  Level Jacksonville Center
04:24PM 29.9269 -83.5061 160° South 430 495 35,000  Level Jacksonville Center
04:30PM 29.2150 -83.2104 160° South 433 498 35,000  Level FlightAware ADS-B (KMCO)
04:35PM 28.6837 -82.9949 160° South 440 506 35,000  Level FlightAware ADS-B (KMCO)
04:35PM 28.6219 -82.9700 160° South 440 506 35,000  Level FlightAware ADS-B (KMCO)
04:37PM 28.4509 -82.9011 161° South 443 510 35,000  Level FlightAware ADS-B (KMCO)
04:37PM 28.3909 -82.8770 161° South 443 510 35,000  Level FlightAware ADS-B (KMCO)
04:38PM 28.2641 -82.8263 161° South 441 507 35,000  Level FlightAware ADS-B (KMCO)
04:39PM 28.1979 -82.7998 161° South 441 507 35,000  Level FlightAware ADS-B (KMCO)
04:41PM 27.9959 -82.7192 161° South 447 514 35,000  Level FlightAware ADS-B (KMCO)
04:41PM 27.9174 -82.6862 160° South 447 514 35,000  Level FlightAware ADS-B (KMCO)
04:42PM 27.8476 -82.6451 152° Southeast 457 526 35,000  Level FlightAware ADS-B (KMCO)
04:43PM 27.7741 -82.5952 149° Southeast 457 526 35,000  Level FlightAware ADS-B (KMCO)
04:43PM 27.6973 -82.5437 149° Southeast 457 526 35,000  Level FlightAware ADS-B (KMCO)
04:44PM 27.6298 -82.4986 149° Southeast 456 525 35,000  Level FlightAware ADS-B (KMCO)
04:45PM 27.5638 -82.4548 149° Southeast 458 527 35,000  Level FlightAware ADS-B (KMCO)
04:45PM 27.4812 -82.4001 150° Southeast 461 531 35,000  Level FlightAware ADS-B (KMCO)
04:46PM 27.4246 -82.3626 150° Southeast 463 533 35,000  Level FlightAware ADS-B (KMCO)
04:47PM 27.3349 -82.3033 150° Southeast 463 533 35,000  Level FlightAware ADS-B (KMCO)
04:47PM 27.2658 -82.2575 150° Southeast 464 534 35,000  Level FlightAware ADS-B (KMCO)
04:48PM 27.1994 -82.2138 150° Southeast 464 534 35,000  Level FlightAware ADS-B (KMCO)
04:49PM 27.1337 -82.1705 150° Southeast 467 537 35,000  Level FlightAware ADS-B (KMCO)
04:50PM 26.9213 -82.0311 150° Southeast 471 542 35,000  Level FlightAware ADS-B (KMCO)
04:51PM 26.8497 -81.9842 150° Southeast 472 543 35,000  Level FlightAware ADS-B (KMCO)
04:52PM 26.7795 -81.9384 150° Southeast 473 544 35,000  Level FlightAware ADS-B (KMCO)
04:52PM 26.6961 -81.8839 150° Southeast 473 544 35,000  Level FlightAware ADS-B (KMCO)
04:53PM 26.6211 -81.8350 150° Southeast 473 544 35,000  Level FlightAware ADS-B (KMCO)
04:54PM 26.5404 -81.7851 151° Southeast 468 539 35,000  Level FlightAware ADS-B (KMCO)
04:54PM 26.4818 -81.7585 158° South 461 531 35,000  Level FlightAware ADS-B (KMCO)
04:55PM 26.3827 -81.7205 161° South 460 529 35,000  Level FlightAware ADS-B (KMCO)
04:56PM 26.3085 -81.6917 161° South 458 527 35,000  Level FlightAware ADS-B (KMCO)
04:57PM 26.2190 -81.6577 161° South 458 527 35,000  Level FlightAware ADS-B (KMCO)
04:57PM 26.1022 -81.6136 161° South 456 525 35,000  Level FlightAware ADS-B (KMCO)
04:58PM 26.0419 -81.5909 161° South 456 525 35,000  Level FlightAware ADS-B (KMCO)
04:59PM 25.9458 -81.5547 161° South 456 525 35,000  Level FlightAware ADS-B (KMCO)
04:59PM 25.8714 -81.5267 161° South 457 526 35,000  Level FlightAware ADS-B (KMCO)
05:00PM 25.7794 -81.4922 161° South 458 527 35,000  Level FlightAware ADS-B (KMCO)
05:01PM 25.7206 -81.4702 161° South 458 527 35,000  Level FlightAware ADS-B (KMCO)
05:01PM 25.6405 -81.4402 161° South 457 526 35,000 -480 Level FlightAware ADS-B (KMCO)
05:02PM 25.5672 -81.4127 161° South 438 504 34,400 -780 Descending FlightAware ADS-B (KMCO)
05:02PM 25.5192 -81.3967 161° South 455 524 34,100 -900 Descending Miami Center
05:03PM 25.4119 -81.3558 161° South 441 507 33,100 -1,020 Descending Miami Center
05:04PM 25.3022 -81.3197 163° South 423 487 32,100 -1,020 Descending Miami Center
05:06PM 25.1867 -81.2742 160° South 423 487 31,100 -1,020 Descending Miami Center
05:07PM 25.0753 -81.2333 162° South 423 487 30,100 -1,020 Descending Miami Center
05:08PM 24.9636 -81.1928 162° South 423 487 29,100 -960 Descending Miami Center
05:08PM 24.8561 -81.1500 160° South 416 479 28,200 -960 Descending Miami Center
05:09PM 24.7467 -81.1142 163° South 416 479 27,200 -1,020 Descending Miami Center
05:10PM 24.6339 -81.1081 177° South 411 473 26,200 -1,020 Descending Miami Center
05:11PM 24.5269 -81.1228 187° South 397 457 25,200 -600 Descending Miami Center
05:12PM 24.4242 -81.1397 189° South 397 457 25,000 -120 Descending Miami Center
05:13PM 24.3192 -81.1589 189° South 392 451 25,000  Level Miami Center
05:14PM 24.2017 -81.1800 189° South 387 445 25,000  Level Miami Center
05:15PM 24.0967 -81.2014 191° South 394 453 25,000  Level Miami Center
05:16PM 24.0119 -81.2394 202° Southwest 388 447 25,000  Level Miami Center
05:18PM 23.9202 -81.3210 219° Southwest  Level FlightAware Approximate
05:25PM 23.3544 -81.9595 228° Southwest  Level FlightAware Approximate
05:26PM 23.2770 -82.0540 228° Southwest  Level FlightAware Approximate
05:27PM 23.1972 -82.1461 226° Southwest  Level FlightAware Approximate
05:28PM 23.1092 -82.2272 212° Southwest  Level FlightAware Approximate
05:29PM 23.0387 -82.3261 231° Southwest  Level FlightAware Approximate
05:30PM 22.9891 -82.4091 223° Southwest  Level Estimated
05:31PM 22.9891 -82.4091 223° Southwest  Level Estimated
05:32PM 22.9891 -82.4091 223° Southwest  Level Estimated
05:33PM 22.9891 -82.4091 223° Southwest  Level Estimated
05:34PM 22.9891 -82.4091 223° Southwest  Level Estimated
05:35PM 22.9891 -82.4091 223° Southwest  Level Estimated
05:36PM 22.9891 -82.4091 223° Southwest  Level Estimated
05:37PM 22.9891 -82.4091 223° Southwest  Level Estimated
05:38PM 22.9891 -82.4091 223° Southwest  Level Estimated
05:39PM 22.9891 -82.4091 223° Southwest  Level Estimated
05:40PM 22.9891 -82.4091 223° Southwest  Level Estimated
05:41PM 22.9891 -82.4091 223° Southwest  Level Estimated
05:42PM 22.9891 -82.4091 223° Southwest  Level Estimated
05:43PM 22.9891 -82.4091 223° Southwest  Level Estimated
05:44PM 22.9891 -82.4091 223° Southwest  Level Estimated
05:45PM 22.9891 -82.4091 223° Southwest  Level Estimated
05:46PM 22.9891 -82.4091 223° Southwest  Level Estimated
05:47PM 22.9891 -82.4091 223° Southwest  Level Estimated
05:48PM 22.9891 -82.4091 223° Southwest  Level Estimated
05:49PM 22.9891 -82.4091 223° Southwest  Level Estimated
05:50PM 22.9891 -82.4091 223° Southwest  Level Estimated
05:51PM 22.9891 -82.4091 223° Southwest  Level Estimated
05:52PM 22.9891 -82.4091 223° Southwest  Level Estimated